Consulta los datos en tiempo real de la estación municipal de Seva
| Hora UTC | 18:45 |
|---|---|
| Temperatura | 13.8 ºC |
| Suelo 15 cm | 13.4 ºC |
| Humedad | 82.1 % |
| Presión | 1014.8 hPa |
| Pluja | 0.0 mm |
| Velocidad viento | 3.5 km/h |
| Dirección viento | SW |
| Radiación solar | 25.2 W/m² |
| Temperatura (ºC) | Humedad (%) | Presión (hPa) | Velocidad viento (km/h) | Precipitación (mm) | Radiación solar (W/m²) | ||||||||||||||
|---|---|---|---|---|---|---|---|---|---|---|---|---|---|---|---|---|---|---|---|
| Hora UTC | Aire | Suelo 15 cm | Humedad | Presión | Vel. | Dir. | Vel. Max | Dir. | Intent. máx 5 min. | Rad. Sol. | |||||||||
| 00:05 | 10.1 | 9.2 | 94.1 | 1016.0 | 2.3 | E | 2.3 | E | 0.0 | 0.1 | |||||||||
| 00:10 | 10.1 | 9.3 | 94.1 | 1016.0 | 2.2 | ENE | 3.5 | ESE | 0.0 | 0.0 | |||||||||
| 00:15 | 10.1 | 9.3 | 94.2 | 1015.9 | 3.4 | ENE | 6.4 | ENE | 0.0 | 0.0 | |||||||||
| 00:20 | 10.2 | 9.4 | 94.1 | 1015.9 | 2.2 | ENE | 3.9 | ENE | 0.0 | 0.1 | |||||||||
| 00:25 | 10.2 | 9.4 | 94.0 | 1015.9 | 1.1 | NE | 2.5 | NE | 0.0 | 0.1 | |||||||||
| 00:30 | 10.2 | 9.4 | 94.2 | 1015.9 | 1.8 | NW | 3.5 | NW | 0.0 | 0.1 | |||||||||
| 00:35 | 10.2 | 9.5 | 94.4 | 1015.9 | 3.0 | NW | 5.6 | WNW | 0.0 | 0.1 | |||||||||
| 00:40 | 10.1 | 9.5 | 94.3 | 1015.8 | 3.6 | NW | 5.3 | NW | 0.0 | 0.0 | |||||||||
| 00:45 | 10.0 | 9.4 | 93.9 | 1015.8 | 4.1 | NNW | 6.7 | NNW | 0.0 | 0.0 | |||||||||
| 00:50 | 9.8 | 9.3 | 93.1 | 1015.8 | 4.9 | N | 8.1 | N | 0.0 | 0.0 | |||||||||
| 00:55 | 9.7 | 9.1 | 92.4 | 1015.7 | 3.2 | NNE | 6.4 | N | 0.0 | 0.1 | |||||||||
| 01:00 | 9.7 | 8.9 | 91.8 | 1015.7 | 1.3 | N | 4.9 | NNE | 0.0 | 0.1 | |||||||||
| 01:05 | 9.6 | 8.7 | 91.7 | 1015.7 | 1.7 | NNE | 5.3 | NNE | 0.0 | 0.0 | |||||||||
| 01:10 | 9.5 | 8.5 | 91.7 | 1015.6 | 2.5 | NE | 4.2 | NE | 0.0 | 0.0 | |||||||||
| 01:15 | 9.4 | 8.1 | 91.7 | 1015.5 | 0.6 | NNE | 2.8 | N | 0.0 | 0.1 | |||||||||
| 01:20 | 9.2 | 7.6 | 92.4 | 1015.5 | 1.5 | ESE | 2.8 | SE | 0.0 | 0.1 | |||||||||
| 01:25 | 8.9 | 7.2 | 92.9 | 1015.5 | 0.1 | SE | 1.4 | SE | 0.0 | 0.1 | |||||||||
| 01:30 | 8.6 | 6.9 | 93.3 | 1015.4 | 1.8 | ESE | 2.8 | SE | 0.0 | 0.1 | |||||||||
| 01:35 | 8.4 | 6.7 | 94.0 | 1015.4 | 0.4 | ESE | 1.8 | ESE | 0.0 | 0.1 | |||||||||
| 01:40 | 8.2 | 6.5 | 94.6 | 1015.4 | 0.0 | NNE | 0.0 | ESE | 0.0 | 0.1 | |||||||||
| 01:45 | 8.1 | 6.3 | 95.0 | 1015.4 | 0.0 | NNE | 0.0 | ESE | 0.0 | 0.1 | |||||||||
| 01:50 | 8.0 | 6.1 | 95.5 | 1015.5 | 0.1 | SSE | 1.8 | SSE | 0.0 | 0.1 | |||||||||
| 01:55 | 7.9 | 6.0 | 95.7 | 1015.5 | 0.5 | SE | 1.8 | SE | 0.0 | 0.1 | |||||||||
| 02:00 | 7.8 | 5.9 | 95.9 | 1015.5 | 1.1 | SE | 1.8 | SE | 0.0 | 0.1 | |||||||||
| 02:05 | 7.7 | 5.9 | 96.1 | 1015.4 | 0.4 | SE | 1.4 | SE | 0.0 | 0.1 | |||||||||
| 02:10 | 7.6 | 5.9 | 96.2 | 1015.4 | 1.3 | ESE | 3.5 | ESE | 0.0 | 0.1 | |||||||||
| 02:15 | 7.6 | 5.8 | 96.3 | 1015.4 | 3.0 | ESE | 3.5 | ESE | 0.0 | 0.1 | |||||||||
| 02:20 | 7.5 | 5.7 | 96.5 | 1015.3 | 2.2 | ESE | 3.2 | E | 0.0 | 0.1 | |||||||||
| 02:25 | 7.5 | 5.6 | 96.7 | 1015.3 | 0.9 | ESE | 2.1 | ESE | 0.0 | 0.1 | |||||||||
| 02:30 | 7.4 | 5.6 | 96.7 | 1015.3 | 1.5 | ESE | 2.8 | ESE | 0.0 | 0.1 | |||||||||
| 02:35 | 7.2 | 5.4 | 96.7 | 1015.3 | 1.8 | ENE | 3.9 | ENE | 0.0 | 0.1 | |||||||||
| 02:40 | 7.2 | 5.5 | 96.9 | 1015.3 | 2.8 | ENE | 3.9 | ENE | 0.0 | 0.1 | |||||||||
| 02:45 | 7.1 | 5.3 | 97.0 | 1015.3 | 3.1 | ENE | 5.3 | NE | 0.0 | 0.1 | |||||||||
| 02:50 | 7.1 | 5.4 | 97.1 | 1015.3 | 2.8 | ENE | 4.6 | NE | 0.0 | 0.1 | |||||||||
| 02:55 | 7.1 | 5.3 | 97.3 | 1015.2 | 2.2 | E | 3.2 | E | 0.0 | 0.1 | |||||||||
| 03:00 | 7.1 | 5.3 | 97.4 | 1015.3 | 2.2 | E | 3.2 | ENE | 0.0 | 0.1 | |||||||||
| 03:05 | 7.0 | 5.3 | 97.3 | 1015.3 | 2.9 | E | 4.6 | E | 0.0 | 0.1 | |||||||||
| 03:10 | 6.9 | 5.2 | 97.4 | 1015.3 | 3.6 | E | 4.6 | E | 0.0 | 0.1 | |||||||||
| 03:15 | 6.9 | 5.1 | 97.5 | 1015.2 | 2.8 | E | 4.2 | E | 0.0 | 0.0 | |||||||||
| 03:20 | 6.9 | 5.0 | 97.5 | 1015.2 | 2.0 | E | 3.2 | E | 0.0 | 0.1 | |||||||||
| 03:25 | 6.8 | 5.0 | 97.6 | 1015.2 | 1.7 | ESE | 2.5 | ESE | 0.0 | 0.1 | |||||||||
| 03:30 | 6.9 | 4.9 | 97.8 | 1015.1 | 2.7 | ESE | 3.2 | ESE | 0.0 | 0.1 | |||||||||
| 03:35 | 6.9 | 4.9 | 97.8 | 1015.2 | 2.8 | ESE | 3.9 | ESE | 0.0 | 0.0 | |||||||||
| 03:40 | 6.9 | 4.8 | 97.9 | 1015.2 | 1.1 | SE | 2.1 | SE | 0.0 | 0.1 | |||||||||
| 03:45 | 6.8 | 4.8 | 97.9 | 1015.2 | 0.3 | E | 1.4 | SSE | 0.0 | 0.1 | |||||||||
| 03:50 | 6.8 | 4.9 | 98.0 | 1015.2 | 1.8 | NE | 3.2 | N | 0.0 | 0.1 | |||||||||
| 03:55 | 6.8 | 4.8 | 98.0 | 1015.2 | 2.0 | ENE | 3.5 | NNE | 0.0 | 0.1 | |||||||||
| 04:00 | 6.7 | 4.7 | 97.9 | 1015.2 | 2.1 | NE | 3.9 | NE | 0.0 | 0.1 | |||||||||
| 04:05 | 6.7 | 4.7 | 98.1 | 1015.2 | 1.8 | ENE | 2.8 | ENE | 0.0 | 0.1 | |||||||||
| 04:10 | 6.7 | 4.7 | 98.1 | 1015.3 | 2.0 | E | 3.5 | E | 0.0 | 0.1 | |||||||||
| 04:15 | 6.7 | 4.7 | 98.2 | 1015.3 | 2.1 | E | 3.5 | ENE | 0.0 | 0.1 | |||||||||
| 04:20 | 6.6 | 4.7 | 98.0 | 1015.3 | 3.1 | ENE | 4.6 | ENE | 0.0 | 0.1 | |||||||||
| 04:25 | 6.5 | 4.6 | 98.0 | 1015.3 | 2.8 | ENE | 5.3 | NE | 0.0 | 0.4 | |||||||||
| 04:30 | 6.5 | 4.6 | 98.2 | 1015.2 | 2.9 | ENE | 4.6 | NE | 0.0 | 0.9 | |||||||||
| 04:35 | 6.5 | 4.6 | 98.2 | 1015.2 | 4.1 | E | 4.9 | E | 0.0 | 1.8 | |||||||||
| 04:40 | 6.8 | 4.6 | 98.6 | 1015.2 | 3.8 | E | 5.3 | E | 0.0 | 3.1 | |||||||||
| 04:45 | 6.7 | 4.7 | 98.3 | 1015.2 | 4.0 | E | 6.0 | ENE | 0.0 | 4.7 | |||||||||
| 04:50 | 6.6 | 4.7 | 98.2 | 1015.2 | 4.8 | E | 6.7 | E | 0.0 | 6.8 | |||||||||
| 04:55 | 6.6 | 4.7 | 98.3 | 1015.2 | 4.5 | E | 6.4 | E | 0.0 | 9.3 | |||||||||
| 05:00 | 6.6 | 4.7 | 98.3 | 1015.2 | 4.5 | E | 6.0 | ESE | 0.0 | 12.0 | |||||||||
| 05:05 | 6.7 | 4.8 | 98.4 | 1015.3 | 4.4 | E | 6.4 | E | 0.0 | 14.7 | |||||||||
| 05:10 | 6.6 | 4.9 | 98.2 | 1015.3 | 3.9 | E | 5.6 | E | 0.0 | 17.3 | |||||||||
| 05:15 | 6.6 | 4.9 | 98.3 | 1015.3 | 4.4 | E | 6.0 | E | 0.0 | 20.2 | |||||||||
| 05:20 | 6.6 | 5.0 | 98.3 | 1015.2 | 3.9 | ENE | 4.9 | ENE | 0.0 | 22.2 | |||||||||
| 05:25 | 6.7 | 5.1 | 98.4 | 1015.3 | 3.5 | E | 4.9 | ENE | 0.0 | 26.7 | |||||||||
| 05:30 | 6.9 | 5.2 | 98.5 | 1015.3 | 2.7 | ENE | 3.9 | NE | 0.0 | 87.2 | |||||||||
| 05:35 | 7.1 | 5.5 | 98.6 | 1015.3 | 2.5 | ENE | 3.2 | ENE | 0.0 | 116.4 | |||||||||
| 05:40 | 7.4 | 5.7 | 98.6 | 1015.4 | 2.2 | E | 3.2 | ESE | 0.0 | 129.6 | |||||||||
| 05:45 | 7.9 | 5.8 | 98.4 | 1015.5 | 1.2 | ENE | 2.5 | ENE | 0.0 | 143.8 | |||||||||
| 05:50 | 8.5 | 6.1 | 97.8 | 1015.5 | 0.5 | N | 3.2 | N | 0.0 | 156.7 | |||||||||
| 05:55 | 9.0 | 7.3 | 97.0 | 1015.6 | 0.4 | NE | 1.8 | NNE | 0.0 | 170.3 | |||||||||
| 06:00 | 9.5 | 8.5 | 96.2 | 1015.6 | 0.5 | NE | 2.5 | NNE | 0.0 | 183.7 | |||||||||
| 06:05 | 10.2 | 9.4 | 95.4 | 1015.6 | 1.0 | N | 2.5 | N | 0.0 | 197.4 | |||||||||
| 06:10 | 10.6 | 10.3 | 93.0 | 1015.6 | 0.9 | NNE | 2.8 | N | 0.0 | 210.4 | |||||||||
| 06:15 | 10.9 | 11.6 | 89.7 | 1015.6 | 1.8 | NNE | 3.2 | NNE | 0.0 | 209.8 | |||||||||
| 06:20 | 11.0 | 12.7 | 87.3 | 1015.6 | 1.4 | N | 3.2 | NNW | 0.0 | 239.2 | |||||||||
| 06:25 | 11.1 | 13.8 | 85.8 | 1015.6 | 2.9 | NNW | 5.6 | NNW | 0.0 | 253.9 | |||||||||
| 06:30 | 11.2 | 14.5 | 85.0 | 1015.6 | 2.3 | N | 4.2 | NNW | 0.0 | 268.6 | |||||||||
| 06:35 | 11.3 | 15.0 | 83.3 | 1015.6 | 3.7 | NNW | 4.9 | N | 0.0 | 284.8 | |||||||||
| 06:40 | 11.3 | 15.5 | 83.8 | 1015.6 | 3.6 | NNW | 4.9 | NNW | 0.0 | 299.0 | |||||||||
| 06:45 | 11.3 | 15.9 | 83.3 | 1015.6 | 3.8 | NNW | 6.0 | NNW | 0.0 | 314.6 | |||||||||
| 06:50 | 11.3 | 16.3 | 82.8 | 1015.7 | 3.9 | NNW | 6.0 | NNW | 0.0 | 328.7 | |||||||||
| 06:55 | 11.4 | 16.6 | 81.9 | 1015.8 | 3.7 | NNW | 5.6 | N | 0.0 | 344.9 | |||||||||
| 07:00 | 11.7 | 17.1 | 82.4 | 1015.8 | 3.3 | NNW | 4.9 | N | 0.0 | 361.0 | |||||||||
| 07:05 | 11.9 | 17.9 | 82.0 | 1015.8 | 2.6 | NNW | 5.3 | NNW | 0.0 | 376.6 | |||||||||
| 07:10 | 12.1 | 18.3 | 81.1 | 1015.9 | 2.4 | NW | 4.6 | NNW | 0.0 | 392.3 | |||||||||
| 07:15 | 12.2 | 18.7 | 79.7 | 1016.0 | 1.5 | W | 5.6 | WSW | 0.0 | 407.8 | |||||||||
| 07:20 | 12.5 | 18.9 | 80.6 | 1016.0 | 2.8 | W | 4.9 | WSW | 0.0 | 424.4 | |||||||||
| 07:25 | 12.9 | 19.6 | 78.7 | 1016.0 | 1.8 | W | 4.2 | W | 0.0 | 439.6 | |||||||||
| 07:30 | 12.8 | 19.9 | 77.9 | 1016.1 | 2.5 | W | 6.4 | W | 0.0 | 455.8 | |||||||||
| 07:35 | 13.2 | 20.4 | 78.5 | 1016.1 | 2.5 | W | 7.8 | SSE | 0.0 | 470.3 | |||||||||
| 07:40 | 13.4 | 20.1 | 78.1 | 1016.2 | 5.2 | SSW | 13.8 | SSE | 0.0 | 487.4 | |||||||||
| 07:45 | 13.7 | 19.9 | 78.5 | 1016.1 | 2.6 | SW | 7.4 | SW | 0.0 | 504.2 | |||||||||
| 07:50 | 14.2 | 20.1 | 76.9 | 1016.1 | 6.2 | SSE | 15.9 | SSE | 0.0 | 516.8 | |||||||||
| 07:55 | 14.1 | 19.7 | 75.8 | 1016.0 | 7.8 | S | 13.8 | SSW | 0.0 | 534.0 | |||||||||
| 08:00 | 14.6 | 20.1 | 76.3 | 1016.0 | 5.1 | SSW | 9.5 | SE | 0.0 | 473.4 | |||||||||
| 08:05 | 14.9 | 20.5 | 74.7 | 1016.0 | 4.8 | SSE | 10.9 | SSE | 0.0 | 583.0 | |||||||||
| 08:10 | 15.0 | 20.9 | 72.5 | 1015.9 | 5.1 | S | 13.8 | SSE | 0.0 | 606.6 | |||||||||
| 08:15 | 15.5 | 21.6 | 72.4 | 1015.9 | 4.5 | SSW | 14.1 | S | 0.0 | 614.4 | |||||||||
| 08:20 | 15.6 | 21.9 | 69.5 | 1015.9 | 5.4 | SSW | 13.4 | WSW | 0.0 | 616.2 | |||||||||
| 08:25 | 15.5 | 21.9 | 68.3 | 1015.9 | 6.2 | S | 12.0 | S | 0.0 | 607.0 | |||||||||
| 08:30 | 15.6 | 21.8 | 69.0 | 1015.8 | 5.3 | S | 12.7 | SSW | 0.0 | 569.9 | |||||||||
| 08:35 | 15.4 | 21.2 | 68.3 | 1015.8 | 6.1 | S | 16.9 | SSE | 0.0 | 570.4 | |||||||||
| 08:40 | 15.7 | 21.5 | 68.4 | 1015.8 | 6.9 | S | 13.4 | ESE | 0.0 | 596.2 | |||||||||
| 08:45 | 15.2 | 21.1 | 68.9 | 1015.8 | 7.3 | S | 15.2 | SSW | 0.0 | 657.2 | |||||||||
| 08:50 | 15.5 | 21.5 | 67.0 | 1015.8 | 5.4 | S | 11.6 | SSW | 0.0 | 667.3 | |||||||||
| 08:55 | 15.6 | 21.9 | 67.3 | 1015.7 | 4.1 | S | 11.3 | SSE | 0.0 | 665.7 | |||||||||
| 09:00 | 15.9 | 22.1 | 66.2 | 1015.7 | 6.0 | S | 13.4 | SE | 0.0 | 666.7 | |||||||||
| 09:05 | 16.1 | 22.4 | 63.7 | 1015.8 | 5.2 | SW | 11.6 | SSW | 0.0 | 682.3 | |||||||||
| 09:10 | 16.1 | 23.2 | 64.4 | 1015.8 | 4.6 | SSW | 13.8 | SSW | 0.0 | 726.7 | |||||||||
| 09:15 | 16.7 | 23.6 | 63.5 | 1015.8 | 6.2 | SSW | 13.1 | S | 0.0 | 743.7 | |||||||||
| 09:20 | 16.9 | 23.8 | 63.1 | 1015.8 | 5.4 | SSW | 14.5 | SW | 0.0 | 764.1 | |||||||||
| 09:25 | 17.1 | 24.5 | 61.3 | 1015.8 | 5.3 | S | 14.5 | SW | 0.0 | 771.6 | |||||||||
| 09:30 | 16.9 | 24.1 | 59.4 | 1015.9 | 5.3 | S | 10.9 | SW | 0.0 | 782.3 | |||||||||
| 09:35 | 16.8 | 24.0 | 59.8 | 1015.9 | 5.6 | SSE | 14.1 | S | 0.0 | 784.7 | |||||||||
| 09:40 | 16.7 | 23.7 | 59.7 | 1016.0 | 8.3 | SE | 14.1 | SSE | 0.0 | 806.0 | |||||||||
| 09:45 | 16.7 | 23.6 | 60.2 | 1015.9 | 6.2 | SE | 13.8 | ESE | 0.0 | 841.0 | |||||||||
| 09:50 | 17.0 | 23.8 | 61.1 | 1015.9 | 5.5 | SSE | 15.9 | SSE | 0.0 | 829.0 | |||||||||
| 09:55 | 17.3 | 24.1 | 59.1 | 1015.9 | 5.5 | S | 14.8 | SW | 0.0 | 844.0 | |||||||||
| 10:00 | 17.7 | 24.7 | 56.9 | 1015.9 | 4.9 | SW | 12.4 | S | 0.0 | 824.0 | |||||||||
| 10:05 | 17.8 | 25.1 | 56.3 | 1015.8 | 4.6 | SSW | 11.3 | SW | 0.0 | 808.0 | |||||||||
| 10:10 | 17.7 | 25.4 | 55.0 | 1015.7 | 5.3 | SW | 13.1 | WSW | 0.0 | 842.0 | |||||||||
| 10:15 | 17.6 | 25.6 | 54.5 | 1015.7 | 5.6 | S | 14.1 | SSW | 0.0 | 641.5 | |||||||||
| 10:20 | 17.4 | 23.7 | 55.9 | 1015.6 | 4.0 | SSW | 12.4 | S | 0.0 | 595.5 | |||||||||
| 10:25 | 17.6 | 23.6 | 53.9 | 1015.6 | 6.2 | SSW | 14.8 | SSE | 0.0 | 658.5 | |||||||||
| 10:30 | 17.4 | 23.2 | 55.9 | 1015.6 | 4.4 | SSE | 11.3 | SSE | 0.0 | 634.8 | |||||||||
| 10:35 | 17.8 | 23.2 | 55.2 | 1015.7 | 3.0 | S | 16.2 | SE | 0.0 | 716.4 | |||||||||
| 10:40 | 17.5 | 23.1 | 56.7 | 1015.7 | 10.1 | SE | 20.8 | SSE | 0.0 | 803.0 | |||||||||
| 10:45 | 17.1 | 22.7 | 57.9 | 1015.7 | 9.6 | SE | 15.9 | SE | 0.0 | 924.0 | |||||||||
| 10:50 | 17.3 | 23.4 | 58.8 | 1015.6 | 5.8 | SSW | 12.4 | WSW | 0.0 | 870.0 | |||||||||
| 10:55 | 17.9 | 24.6 | 55.5 | 1015.6 | 7.2 | S | 17.3 | SSW | 0.0 | 955.0 | |||||||||
| 11:00 | 17.9 | 25.0 | 54.5 | 1015.6 | 7.3 | SSW | 14.1 | SSW | 0.0 | 811.0 | |||||||||
| 11:05 | 17.9 | 24.6 | 54.2 | 1015.5 | 4.8 | S | 12.4 | S | 0.0 | 846.0 | |||||||||
| 11:10 | 18.1 | 25.0 | 55.5 | 1015.4 | 8.6 | SW | 18.0 | SW | 0.0 | 840.0 | |||||||||
| 11:15 | 18.1 | 24.9 | 56.8 | 1015.3 | 8.1 | SSW | 15.9 | S | 0.0 | 652.0 | |||||||||
| 11:20 | 18.4 | 24.6 | 58.2 | 1015.3 | 6.8 | SW | 15.5 | WSW | 0.0 | 933.0 | |||||||||
| 11:25 | 18.5 | 24.8 | 52.9 | 1015.3 | 8.2 | S | 16.6 | SSW | 0.0 | 616.2 | |||||||||
| 11:30 | 18.3 | 24.0 | 53.5 | 1015.3 | 3.4 | S | 11.3 | S | 0.0 | 745.2 | |||||||||
| 11:35 | 18.5 | 24.3 | 53.4 | 1015.2 | 5.2 | S | 12.4 | S | 0.0 | 609.6 | |||||||||
| 11:40 | 18.0 | 24.0 | 56.2 | 1015.2 | 5.4 | SE | 13.1 | SE | 0.0 | 960.0 | |||||||||
| 11:45 | 18.9 | 25.6 | 55.5 | 1015.1 | 5.4 | SSE | 13.1 | SW | 0.0 | 1026.0 | |||||||||
| 11:50 | 18.4 | 25.7 | 53.9 | 1015.1 | 8.7 | SSE | 16.2 | SSE | 0.0 | 1032.0 | |||||||||
| 11:55 | 18.7 | 26.0 | 54.5 | 1015.0 | 5.8 | S | 16.2 | S | 0.0 | 994.0 | |||||||||
| 12:00 | 18.7 | 26.2 | 51.2 | 1014.9 | 7.2 | SE | 11.3 | ESE | 0.0 | 1021.0 | |||||||||
| 12:05 | 19.0 | 25.9 | 50.7 | 1014.9 | 5.9 | SSW | 16.2 | SW | 0.0 | 390.3 | |||||||||
| 12:10 | 18.4 | 23.5 | 50.9 | 1014.9 | 6.5 | WSW | 15.2 | WSW | 0.0 | 223.5 | |||||||||
| 12:15 | 18.2 | 22.7 | 54.8 | 1014.9 | 4.6 | SSW | 14.5 | SW | 0.0 | 898.0 | |||||||||
| 12:20 | 19.4 | 25.4 | 53.0 | 1014.9 | 6.3 | SSW | 19.4 | WSW | 0.0 | 1035.0 | |||||||||
| 12:25 | 19.0 | 26.4 | 50.8 | 1014.9 | 6.8 | SW | 19.1 | WSW | 0.0 | 658.9 | |||||||||
| 12:30 | 18.3 | 24.1 | 54.1 | 1014.9 | 7.0 | SSE | 16.1 | E | 0.0 | 614.6 | |||||||||
| 12:35 | 18.7 | 24.4 | 54.8 | 1014.9 | 7.1 | SSW | 17.6 | SSW | 0.0 | 991.0 | |||||||||
| 12:40 | 19.1 | 25.2 | 55.2 | 1014.8 | 8.9 | S | 29.3 | SSW | 0.0 | 881.0 | |||||||||
| 12:45 | 19.0 | 25.4 | 59.6 | 1014.9 | 11.1 | SSW | 26.5 | S | 0.0 | 983.0 | |||||||||
| 12:50 | 19.0 | 25.8 | 59.9 | 1014.8 | 9.2 | SSW | 22.2 | SSW | 0.0 | 973.0 | |||||||||
| 12:55 | 19.0 | 25.7 | 60.0 | 1014.8 | 9.8 | S | 21.5 | SSE | 0.0 | 933.0 | |||||||||
| 13:00 | 18.6 | 24.9 | 59.5 | 1014.8 | 10.4 | SSE | 19.8 | SSE | 0.0 | 906.0 | |||||||||
| 13:05 | 18.5 | 24.6 | 59.9 | 1014.7 | 6.9 | S | 14.1 | SSE | 0.0 | 856.0 | |||||||||
| 13:10 | 18.5 | 24.6 | 59.0 | 1014.7 | 11.3 | SSE | 26.5 | S | 0.0 | 860.0 | |||||||||
| 13:15 | 18.6 | 24.4 | 62.0 | 1014.6 | 7.7 | S | 17.6 | SSW | 0.0 | 844.0 | |||||||||
| 13:20 | 19.1 | 25.0 | 61.7 | 1014.5 | 7.2 | S | 24.7 | S | 0.0 | 871.0 | |||||||||
| 13:25 | 18.9 | 25.3 | 60.6 | 1014.6 | 8.6 | S | 20.1 | SSE | 0.0 | 899.0 | |||||||||
| 13:30 | 18.2 | 24.4 | 61.7 | 1014.6 | 9.6 | SSE | 21.2 | S | 0.0 | 759.0 | |||||||||
| 13:35 | 18.2 | 23.6 | 62.6 | 1014.4 | 8.7 | SSE | 17.3 | SE | 0.0 | 742.2 | |||||||||
| 13:40 | 17.7 | 23.4 | 63.3 | 1014.4 | 9.9 | SSE | 18.7 | SE | 0.0 | 869.0 | |||||||||
| 13:45 | 18.0 | 23.6 | 62.9 | 1014.3 | 11.0 | SSE | 24.7 | SSE | 0.0 | 843.0 | |||||||||
| 13:50 | 18.5 | 24.1 | 62.4 | 1014.3 | 6.6 | SSE | 20.8 | SSW | 0.0 | 855.0 | |||||||||
| 13:55 | 18.9 | 24.8 | 59.8 | 1014.3 | 10.3 | S | 22.6 | SSW | 0.0 | 808.0 | |||||||||
| 14:00 | 18.2 | 24.0 | 60.8 | 1014.2 | 12.3 | S | 26.8 | S | 0.0 | 800.0 | |||||||||
| 14:05 | 18.4 | 24.1 | 60.8 | 1014.1 | 7.9 | S | 16.6 | SSW | 0.0 | 786.7 | |||||||||
| 14:10 | 18.6 | 24.3 | 60.0 | 1014.1 | 8.3 | S | 17.6 | SSE | 0.0 | 733.3 | |||||||||
| 14:15 | 18.4 | 24.1 | 60.2 | 1014.1 | 9.7 | SSE | 25.8 | S | 0.0 | 718.0 | |||||||||
| 14:20 | 18.2 | 23.7 | 59.7 | 1014.1 | 9.6 | S | 24.0 | S | 0.0 | 679.3 | |||||||||
| 14:25 | 17.8 | 23.2 | 60.7 | 1014.0 | 10.7 | S | 23.3 | S | 0.0 | 687.9 | |||||||||
| 14:30 | 18.0 | 23.2 | 60.6 | 1013.9 | 10.4 | SSW | 21.2 | SSW | 0.0 | 709.8 | |||||||||
| 14:35 | 18.2 | 23.6 | 60.4 | 1013.8 | 9.9 | S | 21.5 | S | 0.0 | 683.1 | |||||||||
| 14:40 | 17.9 | 23.2 | 60.2 | 1013.9 | 11.4 | SSW | 22.9 | S | 0.0 | 507.2 | |||||||||
| 14:45 | 17.7 | 22.4 | 61.2 | 1013.9 | 9.2 | S | 21.5 | S | 0.0 | 533.9 | |||||||||
| 14:50 | 17.8 | 22.2 | 61.3 | 1013.9 | 9.9 | S | 25.4 | SSW | 0.0 | 574.1 | |||||||||
| 14:55 | 17.7 | 22.2 | 61.7 | 1013.7 | 10.1 | S | 22.2 | SSW | 0.0 | 658.9 | |||||||||
| 15:00 | 17.8 | 22.6 | 61.4 | 1013.7 | 9.8 | S | 19.8 | SSW | 0.0 | 598.6 | |||||||||
| 15:05 | 18.0 | 22.8 | 60.7 | 1013.8 | 9.2 | SSE | 21.9 | SSE | 0.0 | 513.5 | |||||||||
| 15:10 | 17.5 | 21.7 | 61.8 | 1013.8 | 9.9 | S | 21.9 | SSW | 0.0 | 460.7 | |||||||||
| 15:15 | 17.4 | 21.3 | 61.9 | 1013.7 | 10.4 | S | 20.8 | SSE | 0.0 | 531.7 | |||||||||
| 15:20 | 17.7 | 21.7 | 62.5 | 1013.7 | 9.6 | S | 23.3 | S | 0.0 | 552.8 | |||||||||
| 15:25 | 17.4 | 21.8 | 62.0 | 1013.7 | 10.9 | S | 22.6 | SSW | 0.0 | 665.9 | |||||||||
| 15:30 | 17.4 | 22.2 | 62.1 | 1013.6 | 11.3 | S | 23.3 | SSE | 0.0 | 591.4 | |||||||||
| 15:35 | 17.5 | 22.3 | 62.7 | 1013.6 | 9.1 | S | 21.9 | S | 0.0 | 538.2 | |||||||||
| 15:40 | 17.6 | 22.2 | 62.8 | 1013.6 | 9.4 | S | 19.1 | S | 0.0 | 514.3 | |||||||||
| 15:45 | 17.5 | 22.3 | 62.3 | 1013.6 | 13.3 | SSW | 26.1 | S | 0.0 | 492.0 | |||||||||
| 15:50 | 17.4 | 21.9 | 63.1 | 1013.6 | 11.1 | S | 22.2 | SSW | 0.0 | 536.4 | |||||||||
| 15:55 | 17.3 | 21.9 | 63.6 | 1013.5 | 10.7 | S | 25.8 | SSW | 0.0 | 537.0 | |||||||||
| 16:00 | 17.4 | 21.8 | 64.2 | 1013.6 | 9.0 | S | 26.1 | S | 0.0 | 475.9 | |||||||||
| 16:05 | 17.3 | 21.6 | 64.5 | 1013.6 | 12.5 | S | 27.2 | SSW | 0.0 | 434.1 | |||||||||
| 16:10 | 16.9 | 21.1 | 65.7 | 1013.6 | 11.2 | S | 25.1 | SSW | 0.0 | 423.5 | |||||||||
| 16:15 | 16.8 | 20.7 | 66.7 | 1013.6 | 8.6 | S | 18.4 | S | 0.0 | 394.2 | |||||||||
| 16:20 | 16.9 | 20.9 | 67.1 | 1013.6 | 7.2 | SSE | 16.9 | SSE | 0.0 | 438.2 | |||||||||
| 16:25 | 17.0 | 21.0 | 66.4 | 1013.6 | 8.6 | SSE | 18.4 | S | 0.0 | 409.8 | |||||||||
| 16:30 | 16.9 | 20.8 | 66.6 | 1013.7 | 8.3 | SSE | 20.1 | S | 0.0 | 417.8 | |||||||||
| 16:35 | 17.2 | 20.8 | 65.4 | 1013.7 | 7.2 | SSE | 13.8 | S | 0.0 | 315.4 | |||||||||
| 16:40 | 16.8 | 19.8 | 65.9 | 1013.7 | 9.6 | SSE | 18.4 | SSE | 0.0 | 320.0 | |||||||||
| 16:45 | 16.7 | 19.6 | 66.5 | 1013.8 | 7.5 | SE | 15.5 | S | 0.0 | 323.1 | |||||||||
| 16:50 | 16.8 | 19.6 | 64.9 | 1013.8 | 6.7 | SE | 15.9 | S | 0.0 | 314.2 | |||||||||
| 16:55 | 16.7 | 19.4 | 64.7 | 1013.7 | 9.1 | SE | 20.1 | SE | 0.0 | 369.2 | |||||||||
| 17:00 | 16.7 | 18.7 | 65.3 | 1013.7 | 9.3 | SE | 17.3 | ESE | 0.0 | 364.0 | |||||||||
| 17:05 | 16.8 | 18.4 | 66.1 | 1013.7 | 8.6 | SSE | 15.9 | E | 0.0 | 333.3 | |||||||||
| 17:10 | 16.7 | 18.8 | 67.2 | 1013.7 | 9.3 | SSE | 16.2 | SSE | 0.0 | 346.1 | |||||||||
| 17:15 | 16.7 | 19.3 | 65.1 | 1013.8 | 6.4 | SE | 11.3 | SE | 0.0 | 297.6 | |||||||||
| 17:20 | 16.9 | 20.0 | 67.0 | 1013.8 | 5.7 | SSE | 14.1 | SSE | 0.0 | 328.5 | |||||||||
| 17:25 | 17.2 | 20.5 | 65.4 | 1013.8 | 6.9 | SSW | 13.8 | SSW | 0.0 | 303.9 | |||||||||
| 17:30 | 17.5 | 21.0 | 64.5 | 1013.8 | 7.7 | SSW | 14.1 | WSW | 0.0 | 290.2 | |||||||||
| 17:35 | 17.3 | 20.9 | 65.6 | 1013.9 | 6.8 | SSW | 12.4 | SE | 0.0 | 297.0 | |||||||||
| 17:40 | 17.3 | 20.8 | 66.3 | 1014.0 | 6.3 | S | 16.9 | SSE | 0.0 | 255.8 | |||||||||
| 17:45 | 16.6 | 19.8 | 68.2 | 1014.1 | 7.7 | S | 15.2 | SSW | 0.0 | 195.3 | |||||||||
| 17:50 | 16.1 | 18.4 | 70.5 | 1014.2 | 6.2 | SSE | 12.4 | SSW | 0.0 | 121.3 | |||||||||
| 17:55 | 15.8 | 17.5 | 72.4 | 1014.2 | 1.9 | SE | 7.1 | ESE | 0.0 | 141.0 | |||||||||
| 18:00 | 15.7 | 17.2 | 73.0 | 1014.2 | 3.3 | SE | 9.5 | ESE | 0.0 | 111.9 | |||||||||
| 18:05 | 15.5 | 16.7 | 74.2 | 1014.3 | 4.2 | S | 9.9 | SSE | 0.0 | 113.2 | |||||||||
| 18:10 | 15.3 | 16.6 | 74.9 | 1014.4 | 4.2 | S | 9.2 | S | 0.0 | 116.6 | |||||||||
| 18:15 | 15.1 | 16.3 | 75.2 | 1014.4 | 3.7 | SSE | 8.8 | SSE | 0.0 | 87.3 | |||||||||
| 18:20 | 15.0 | 15.7 | 76.1 | 1014.5 | 3.3 | S | 8.1 | S | 0.0 | 67.4 | |||||||||
| 18:25 | 14.9 | 15.2 | 77.1 | 1014.5 | 3.9 | SSW | 8.8 | SSW | 0.0 | 51.6 | |||||||||
| 18:30 | 14.5 | 14.6 | 78.7 | 1014.6 | 3.4 | SSW | 10.2 | SSW | 0.0 | 43.7 | |||||||||
| 18:35 | 14.2 | 14.0 | 80.1 | 1014.7 | 2.8 | SSW | 5.3 | SW | 0.0 | 38.3 | |||||||||
| 18:40 | 14.0 | 13.7 | 81.3 | 1014.7 | 2.7 | SSW | 5.3 | SSW | 0.0 | 33.3 | |||||||||
| 18:45 | 13.8 | 13.4 | 82.1 | 1014.8 | 3.5 | SW | 6.4 | SW | 0.0 | 25.2 | |||||||||
| Máxima | 19.4 | 26.4 | 98.6 | 1016.2 | 13.3 | SSW | 29.3 | SSW | 0.0 | 1035.0 | |||||||||
| Mínima | 6.5 | 4.6 | 50.7 | 1013.5 | |||||||||||||||
| Total | 0.0 | ||||||||||||||||||